createdAt,value
2024-05-09T00:00:42.635Z,964.8340
2024-05-09T00:01:43.811Z,964.8260
2024-05-09T00:02:44.679Z,964.8320
2024-05-09T00:03:46.072Z,964.8200
2024-05-09T00:04:47.088Z,964.8160
2024-05-09T00:05:47.792Z,964.8160
2024-05-09T00:06:48.457Z,964.8120
2024-05-09T00:07:49.009Z,964.8220
2024-05-09T00:08:49.670Z,964.8180
2024-05-09T00:09:51.355Z,964.8160
2024-05-09T00:10:52.078Z,964.7980
2024-05-09T00:11:52.775Z,964.7940
2024-05-09T00:12:53.258Z,964.7720
2024-05-09T00:13:53.969Z,964.7680
2024-05-09T00:14:54.490Z,964.7600
2024-05-09T00:15:56.359Z,964.7620
2024-05-09T00:16:57.170Z,964.7500
2024-05-09T00:17:57.997Z,964.7400
2024-05-09T00:18:58.936Z,964.7220
2024-05-09T00:19:59.703Z,964.7060
2024-05-09T00:21:00.594Z,964.6820
2024-05-09T00:22:01.483Z,964.6620
2024-05-09T00:23:02.221Z,964.6480
2024-05-09T00:24:03.478Z,964.6380
2024-05-09T00:25:04.194Z,964.6160
2024-05-09T00:26:04.877Z,964.6220
2024-05-09T00:27:05.775Z,964.6280
2024-05-09T00:28:09.055Z,964.6360
2024-05-09T00:29:10.055Z,964.6360
2024-05-09T00:30:14.509Z,964.6240
2024-05-09T00:31:18.346Z,964.6180
2024-05-09T00:32:19.480Z,964.6120
2024-05-09T00:33:20.855Z,964.6060
2024-05-09T00:34:22.148Z,964.6000
2024-05-09T00:35:23.623Z,964.5940
2024-05-09T00:36:24.765Z,964.5940
2024-05-09T00:37:25.841Z,964.5900
2024-05-09T00:38:26.989Z,964.5940
2024-05-09T00:39:28.163Z,964.6060
2024-05-09T00:40:35.766Z,964.6180
2024-05-09T00:41:36.639Z,964.6200
2024-05-09T00:42:38.805Z,964.6260
2024-05-09T00:43:40.062Z,964.6200
2024-05-09T00:44:41.318Z,964.6340
2024-05-09T00:45:42.607Z,964.6340
2024-05-09T00:46:43.905Z,964.6340
2024-05-09T00:47:45.201Z,964.6420
2024-05-09T00:48:46.552Z,964.6540
2024-05-09T00:49:47.664Z,964.6520
2024-05-09T00:50:48.854Z,964.6380
2024-05-09T00:51:49.824Z,964.6300
2024-05-09T00:52:50.892Z,964.6260
2024-05-09T00:53:51.856Z,964.6160
2024-05-09T00:54:52.736Z,964.6120
2024-05-09T00:55:53.581Z,964.6040
2024-05-09T00:56:54.258Z,964.6060
2024-05-09T00:57:55.082Z,964.5940
2024-05-09T00:58:55.841Z,964.5960
2024-05-09T00:59:56.906Z,964.5980
2024-05-09T01:00:57.508Z,964.5920
2024-05-09T01:01:58.295Z,964.5880
2024-05-09T01:02:59.132Z,964.5820
2024-05-09T01:03:59.834Z,964.5860
2024-05-09T01:05:00.562Z,964.5940
2024-05-09T01:06:01.178Z,964.6040
2024-05-09T01:07:01.811Z,964.6000
2024-05-09T01:08:02.453Z,964.5860
2024-05-09T01:09:03.026Z,964.5860
2024-05-09T01:10:05.578Z,964.5840
2024-05-09T01:11:07.881Z,964.5820
2024-05-09T01:12:08.606Z,964.5820
2024-05-09T01:13:09.158Z,964.5780
2024-05-09T01:14:09.616Z,964.5540
2024-05-09T01:15:10.028Z,964.5560
2024-05-09T01:16:10.431Z,964.5520
2024-05-09T01:17:10.867Z,964.5540
2024-05-09T01:18:12.408Z,964.5600
2024-05-09T01:19:14.390Z,964.5580
2024-05-09T01:20:20.216Z,964.5560
2024-05-09T01:21:21.526Z,964.5640
2024-05-09T01:22:21.816Z,964.5660
2024-05-09T01:23:22.131Z,964.5660
2024-05-09T01:24:22.517Z,964.5520
2024-05-09T01:25:22.818Z,964.5580
2024-05-09T01:26:23.053Z,964.5440
2024-05-09T01:27:23.596Z,964.5400
2024-05-09T01:28:23.847Z,964.5420
2024-05-09T01:29:24.233Z,964.5360
2024-05-09T01:30:31.836Z,964.5300
2024-05-09T01:31:31.165Z,964.5260
2024-05-09T01:32:31.627Z,964.5200
2024-05-09T01:33:33.273Z,964.5140
2024-05-09T01:34:33.960Z,964.5000
2024-05-09T01:35:34.286Z,964.4900
2024-05-09T01:36:34.682Z,964.4860
2024-05-09T01:37:34.833Z,964.4740
2024-05-09T01:38:35.263Z,964.4780
2024-05-09T01:39:35.730Z,964.4760
2024-05-09T01:40:38.930Z,964.4740
2024-05-09T01:41:40.860Z,964.4680
2024-05-09T01:42:41.076Z,964.4780
2024-05-09T01:43:41.887Z,964.4880
2024-05-09T01:44:42.136Z,964.4860
2024-05-09T01:45:42.415Z,964.4780
2024-05-09T01:46:42.698Z,964.4580
2024-05-09T01:47:43.159Z,964.4700
2024-05-09T01:48:44.558Z,964.4580
2024-05-09T01:49:44.989Z,964.4520
2024-05-09T01:50:45.494Z,964.4580
2024-05-09T01:51:46.023Z,964.4620
2024-05-09T01:52:46.277Z,964.4580
2024-05-09T01:53:46.505Z,964.4620
2024-05-09T01:54:46.697Z,964.4380
2024-05-09T01:55:46.979Z,964.4360
2024-05-09T01:56:47.337Z,964.4120
2024-05-09T01:57:47.599Z,964.4000
2024-05-09T01:58:47.781Z,964.4180
2024-05-09T01:59:48.008Z,964.4160
2024-05-09T02:00:48.319Z,964.4060
2024-05-09T02:01:56.632Z,964.3920
2024-05-09T02:02:54.946Z,964.3780
2024-05-09T02:03:55.412Z,964.3640
2024-05-09T02:04:56.158Z,964.3600
2024-05-09T02:05:56.517Z,964.3500
2024-05-09T02:06:57.132Z,964.3480
2024-05-09T02:07:57.392Z,964.3360
2024-05-09T02:08:57.546Z,964.3200
2024-05-09T02:09:58.110Z,964.3180
2024-05-09T02:10:58.532Z,964.3260
2024-05-09T02:11:59.086Z,964.3280
2024-05-09T02:12:59.334Z,964.3240
2024-05-09T02:13:59.700Z,964.3220
2024-05-09T02:14:59.934Z,964.3080
2024-05-09T02:16:00.217Z,964.3060
2024-05-09T02:17:00.556Z,964.3060
2024-05-09T02:18:01.121Z,964.3140
2024-05-09T02:19:01.739Z,964.3140
2024-05-09T02:20:02.115Z,964.3100
2024-05-09T02:21:02.720Z,964.3160
2024-05-09T02:22:02.950Z,964.3180
2024-05-09T02:23:03.305Z,964.3020
2024-05-09T02:24:03.627Z,964.3120
2024-05-09T02:25:03.841Z,964.2980
2024-05-09T02:26:04.497Z,964.3020
2024-05-09T02:27:04.741Z,964.2880
2024-05-09T02:28:05.080Z,964.2920
2024-05-09T02:29:05.393Z,964.2840
2024-05-09T02:30:15.150Z,964.2740
2024-05-09T02:31:13.510Z,964.2600
2024-05-09T02:32:14.104Z,964.2580
2024-05-09T02:33:15.002Z,964.2600
2024-05-09T02:34:16.310Z,964.2580
2024-05-09T02:35:16.604Z,964.2660
2024-05-09T02:36:16.771Z,964.2640
2024-05-09T02:37:16.937Z,964.2640
2024-05-09T02:38:18.221Z,964.2640
2024-05-09T02:39:18.438Z,964.2740
2024-05-09T02:40:25.665Z,964.2660
2024-05-09T02:41:25.977Z,964.2600
2024-05-09T02:42:27.204Z,964.2420
2024-05-09T02:43:27.464Z,964.2420
2024-05-09T02:44:27.763Z,964.2360
2024-05-09T02:45:28.065Z,964.2260
2024-05-09T02:46:28.287Z,964.2180
2024-05-09T02:47:28.808Z,964.2120
2024-05-09T02:48:29.149Z,964.2080
2024-05-09T02:49:29.573Z,964.2060
2024-05-09T02:50:37.036Z,964.2020
2024-05-09T02:51:36.306Z,964.1880
2024-05-09T02:52:36.596Z,964.1900
2024-05-09T02:53:36.903Z,964.1980
2024-05-09T02:54:37.241Z,964.2040
2024-05-09T02:55:37.533Z,964.2020
2024-05-09T02:56:37.991Z,964.2000
2024-05-09T02:57:38.413Z,964.1920
2024-05-09T02:58:38.795Z,964.1920
2024-05-09T02:59:39.078Z,964.1960
2024-05-09T03:00:41.666Z,964.1980
2024-05-09T03:01:45.743Z,964.1940
2024-05-09T03:02:46.164Z,964.2020
2024-05-09T03:03:46.559Z,964.2120
2024-05-09T03:04:47.024Z,964.2100
2024-05-09T03:05:47.495Z,964.2060
2024-05-09T03:06:47.945Z,964.2080
2024-05-09T03:07:48.124Z,964.2020
2024-05-09T03:08:48.420Z,964.2140
2024-05-09T03:09:48.606Z,964.2180
2024-05-09T03:10:49.097Z,964.2260
2024-05-09T03:11:49.510Z,964.2300
2024-05-09T03:12:49.814Z,964.2320
2024-05-09T03:13:50.024Z,964.2400
2024-05-09T03:14:50.297Z,964.2340
2024-05-09T03:15:50.722Z,964.2420
2024-05-09T03:16:51.066Z,964.2480
2024-05-09T03:17:51.696Z,964.2400
2024-05-09T03:18:52.075Z,964.2480
2024-05-09T03:19:52.413Z,964.2480
2024-05-09T03:20:52.766Z,964.2640
2024-05-09T03:21:52.943Z,964.2560
2024-05-09T03:22:56.323Z,964.2420
2024-05-09T03:23:57.513Z,964.2480
2024-05-09T03:24:57.731Z,964.2480
2024-05-09T03:25:58.057Z,964.2500
2024-05-09T03:26:58.441Z,964.2520
2024-05-09T03:27:58.686Z,964.2580
2024-05-09T03:28:58.969Z,964.2480
2024-05-09T03:29:59.157Z,964.2300
2024-05-09T03:30:59.321Z,964.2300
2024-05-09T03:31:59.732Z,964.2140
2024-05-09T03:33:00.341Z,964.2200
2024-05-09T03:34:00.827Z,964.2040
2024-05-09T03:35:01.087Z,964.2100
2024-05-09T03:36:01.249Z,964.1960
2024-05-09T03:37:01.531Z,964.2000
2024-05-09T03:38:01.777Z,964.2000
2024-05-09T03:39:02.097Z,964.2120
2024-05-09T03:40:02.875Z,964.2060
2024-05-09T03:41:03.271Z,964.2040
2024-05-09T03:42:03.612Z,964.2000
2024-05-09T03:43:03.830Z,964.1920
2024-05-09T03:44:04.083Z,964.1980
2024-05-09T03:45:04.328Z,964.1920
2024-05-09T03:46:04.515Z,964.2060
2024-05-09T03:47:04.785Z,964.2060
2024-05-09T03:48:05.522Z,964.1960
2024-05-09T03:49:05.893Z,964.1920
2024-05-09T03:50:11.962Z,964.1960
2024-05-09T03:51:12.509Z,964.1960
2024-05-09T03:52:12.809Z,964.2060
2024-05-09T03:53:13.184Z,964.2060
2024-05-09T03:54:13.528Z,964.2200
2024-05-09T03:55:13.725Z,964.2080
2024-05-09T03:56:14.020Z,964.2060
2024-05-09T03:57:14.213Z,964.2040
2024-05-09T03:58:14.564Z,964.1920
2024-05-09T03:59:14.896Z,964.2080
2024-05-09T04:00:21.950Z,964.2140
2024-05-09T04:01:21.414Z,964.2240
2024-05-09T04:02:21.811Z,964.2280
2024-05-09T04:03:22.565Z,964.2380
2024-05-09T04:04:22.959Z,964.2460
2024-05-09T04:05:23.192Z,964.2580
2024-05-09T04:06:23.418Z,964.2680
2024-05-09T04:07:23.631Z,964.2700
2024-05-09T04:08:23.901Z,964.2660
2024-05-09T04:09:24.166Z,964.2680
2024-05-09T04:10:31.181Z,964.2700
2024-05-09T04:11:30.467Z,964.2520
2024-05-09T04:12:30.844Z,964.2540
2024-05-09T04:13:31.020Z,964.2520
2024-05-09T04:14:31.319Z,964.2620
2024-05-09T04:15:31.866Z,964.2640
2024-05-09T04:16:32.344Z,964.2720
2024-05-09T04:17:33.006Z,964.2640
2024-05-09T04:18:33.451Z,964.2700
2024-05-09T04:19:33.722Z,964.2680
2024-05-09T04:20:39.007Z,964.2620
2024-05-09T04:21:40.760Z,964.2700
2024-05-09T04:22:52.957Z,964.2484
2024-05-09T04:23:53.162Z,964.2440
2024-05-09T04:24:53.295Z,964.2500
2024-05-09T04:26:05.285Z,964.2466
2024-05-09T04:27:05.389Z,964.2520
2024-05-09T04:28:17.367Z,964.2450
2024-05-09T04:29:17.494Z,964.2660
2024-05-09T04:30:26.221Z,964.2580
2024-05-09T04:31:24.540Z,964.2680
2024-05-09T04:32:25.467Z,964.2800
2024-05-09T04:33:25.802Z,964.2860
2024-05-09T04:34:26.121Z,964.2940
2024-05-09T04:35:26.372Z,964.3020
2024-05-09T04:36:26.568Z,964.3020
2024-05-09T04:37:26.670Z,964.3240
2024-05-09T04:38:26.672Z,964.3320
2024-05-09T04:39:26.817Z,964.3360
2024-05-09T04:40:33.396Z,964.3580
2024-05-09T04:41:34.028Z,964.3720
2024-05-09T04:42:34.175Z,964.3840
2024-05-09T04:43:34.337Z,964.4020
2024-05-09T04:44:34.607Z,964.3960
2024-05-09T04:45:35.072Z,964.4040
2024-05-09T04:46:35.479Z,964.4020
2024-05-09T04:47:35.861Z,964.4040
2024-05-09T04:48:36.221Z,964.4000
2024-05-09T04:49:37.504Z,964.3920
2024-05-09T04:50:39.307Z,964.4000
2024-05-09T04:51:40.356Z,964.4080
2024-05-09T04:52:40.510Z,964.4160
2024-05-09T04:53:40.936Z,964.4200
2024-05-09T04:54:41.258Z,964.4140
2024-05-09T04:55:41.438Z,964.4300
2024-05-09T04:56:41.562Z,964.4400
2024-05-09T04:57:41.754Z,964.4520
2024-05-09T04:58:42.128Z,964.4600
2024-05-09T04:59:42.284Z,964.4660
2024-05-09T05:00:42.613Z,964.4600
2024-05-09T05:01:42.779Z,964.4640
2024-05-09T05:02:43.229Z,964.4600
2024-05-09T05:03:43.596Z,964.4760
2024-05-09T05:04:43.985Z,964.4740
2024-05-09T05:05:45.441Z,964.4720
2024-05-09T05:06:46.348Z,964.4840
2024-05-09T05:07:46.504Z,964.5140
2024-05-09T05:08:46.718Z,964.5100
2024-05-09T05:09:46.847Z,964.5240
2024-05-09T05:10:47.710Z,964.5280
2024-05-09T05:11:48.619Z,964.5420
2024-05-09T05:12:48.763Z,964.5280
2024-05-09T05:13:48.852Z,964.5420
2024-05-09T05:14:49.511Z,964.5580
2024-05-09T05:15:50.536Z,964.5680
2024-05-09T05:16:50.568Z,964.5740
2024-05-09T05:18:02.753Z,964.5850
2024-05-09T05:19:02.946Z,964.5860
2024-05-09T05:20:04.707Z,964.5740
2024-05-09T05:21:05.032Z,964.5800
2024-05-09T05:22:05.129Z,964.5740
2024-05-09T05:23:05.205Z,964.5620
2024-05-09T05:24:05.285Z,964.5540
2024-05-09T05:25:05.361Z,964.5340
2024-05-09T05:26:17.309Z,964.5100
2024-05-09T05:27:17.330Z,964.5240
2024-05-09T05:28:29.270Z,964.5433
2024-05-09T05:29:29.398Z,964.5500
2024-05-09T05:30:34.443Z,964.5720
2024-05-09T05:31:36.467Z,964.5760
2024-05-09T05:32:36.583Z,964.5700
2024-05-09T05:33:36.944Z,964.6000
2024-05-09T05:34:37.044Z,964.6160
2024-05-09T05:35:37.196Z,964.6420
2024-05-09T05:36:37.299Z,964.6560
2024-05-09T05:37:37.374Z,964.6640
2024-05-09T05:38:37.523Z,964.6820
2024-05-09T05:39:37.532Z,964.6900
2024-05-09T05:40:38.764Z,964.6760
2024-05-09T05:41:40.077Z,964.6600
2024-05-09T05:42:40.131Z,964.6480
2024-05-09T05:43:40.315Z,964.6560
2024-05-09T05:44:40.452Z,964.6680
2024-05-09T05:45:40.562Z,964.6600
2024-05-09T05:46:41.659Z,964.6360
2024-05-09T05:47:42.139Z,964.6380
2024-05-09T05:48:42.495Z,964.6380
2024-05-09T05:49:42.683Z,964.6480
2024-05-09T05:50:42.855Z,964.6520
2024-05-09T05:51:43.176Z,964.6580
2024-05-09T05:52:43.440Z,964.6540
2024-05-09T05:53:43.555Z,964.6480
2024-05-09T05:54:43.705Z,964.6660
2024-05-09T05:55:43.890Z,964.6760
2024-05-09T05:56:44.141Z,964.6820
2024-05-09T05:57:44.367Z,964.6700
2024-05-09T05:58:44.575Z,964.6740
2024-05-09T05:59:44.800Z,964.6860
2024-05-09T06:00:45.044Z,964.7040
2024-05-09T06:01:45.472Z,964.7120
2024-05-09T06:02:45.868Z,964.7220
2024-05-09T06:03:47.335Z,964.7280
2024-05-09T06:04:47.646Z,964.7380
2024-05-09T06:05:47.866Z,964.7280
2024-05-09T06:06:48.115Z,964.7540
2024-05-09T06:07:49.287Z,964.7600
2024-05-09T06:08:49.388Z,964.7720
2024-05-09T06:09:50.652Z,964.7700
2024-05-09T06:10:50.805Z,964.7420
2024-05-09T06:11:52.151Z,964.7200
2024-05-09T06:12:52.130Z,964.7060
2024-05-09T06:13:52.236Z,964.6980
2024-05-09T06:14:52.407Z,964.6900
2024-05-09T06:15:52.454Z,964.6920
2024-05-09T06:16:54.102Z,964.6880
2024-05-09T06:17:55.752Z,964.6800
2024-05-09T06:18:56.567Z,964.6840
2024-05-09T06:19:56.615Z,964.6620
2024-05-09T06:20:56.851Z,964.6520
2024-05-09T06:21:56.919Z,964.6620
2024-05-09T06:22:56.926Z,964.6700
2024-05-09T06:23:56.984Z,964.6620
2024-05-09T06:25:08.814Z,964.6683
2024-05-09T06:26:20.716Z,964.6900
2024-05-09T06:27:32.577Z,964.6850
2024-05-09T06:28:32.560Z,964.6740
2024-05-09T06:29:44.384Z,964.6700
2024-05-09T06:30:44.341Z,964.6620
2024-05-09T06:31:59.495Z,964.6567
2024-05-09T06:33:00.366Z,964.6680
2024-05-09T06:34:12.536Z,964.6750
2024-05-09T06:35:12.602Z,964.6760
2024-05-09T06:36:13.521Z,964.6740
2024-05-09T06:37:25.362Z,964.6833
2024-05-09T06:38:37.268Z,964.6783
2024-05-09T06:39:37.183Z,964.6680
2024-05-09T06:40:49.034Z,964.6766
2024-05-09T06:42:00.823Z,964.6617
2024-05-09T06:43:12.682Z,964.6317
2024-05-09T06:44:12.695Z,964.6040
2024-05-09T06:45:12.716Z,964.5940
2024-05-09T06:46:24.525Z,964.6033
2024-05-09T06:47:36.534Z,964.5967
2024-05-09T06:48:36.767Z,964.5720
2024-05-09T06:49:36.815Z,964.5620
2024-05-09T06:50:38.347Z,964.5580
2024-05-09T06:51:39.594Z,964.5780
2024-05-09T06:52:41.517Z,964.5700
2024-05-09T06:53:41.486Z,964.5720
2024-05-09T06:54:41.577Z,964.5520
2024-05-09T06:55:41.428Z,964.5460
2024-05-09T06:56:53.211Z,964.5466
2024-05-09T06:58:04.938Z,964.5684
2024-05-09T06:59:16.743Z,964.5734
2024-05-09T07:00:35.599Z,964.5616
2024-05-09T07:01:35.287Z,964.5780
2024-05-09T07:02:47.066Z,964.5917
2024-05-09T07:03:47.135Z,964.5940
2024-05-09T07:04:47.241Z,964.6260
2024-05-09T07:05:48.569Z,964.6180
2024-05-09T07:06:50.937Z,964.6060
2024-05-09T07:07:50.923Z,964.6040
2024-05-09T07:08:52.448Z,964.6120
2024-05-09T07:09:52.626Z,964.6180
2024-05-09T07:10:52.784Z,964.6080
2024-05-09T07:11:52.984Z,964.5940
2024-05-09T07:12:53.234Z,964.6140
2024-05-09T07:13:53.207Z,964.6180
2024-05-09T07:14:53.583Z,964.6360
2024-05-09T07:15:53.516Z,964.6400
2024-05-09T07:17:05.404Z,964.6367
2024-05-09T07:18:05.497Z,964.6540
2024-05-09T07:19:05.686Z,964.6480
2024-05-09T07:20:08.963Z,964.6600
2024-05-09T07:21:09.366Z,964.6700
2024-05-09T07:22:21.156Z,964.6517
2024-05-09T07:23:32.905Z,964.6334
2024-05-09T07:24:44.778Z,964.6116
2024-05-09T07:25:56.587Z,964.6050
2024-05-09T07:27:08.266Z,964.6000
2024-05-09T07:28:19.960Z,964.5700
2024-05-09T07:29:32.989Z,964.5600
2024-05-09T07:30:35.171Z,964.5620
2024-05-09T07:31:35.215Z,964.5660
2024-05-09T07:32:47.096Z,964.5416
2024-05-09T07:33:47.148Z,964.5460
2024-05-09T07:34:47.192Z,964.5420
2024-05-09T07:35:58.933Z,964.5333
2024-05-09T07:37:10.643Z,964.5200
2024-05-09T07:38:22.512Z,964.5100
2024-05-09T07:39:22.670Z,964.4960
2024-05-09T07:40:36.644Z,964.4966
2024-05-09T07:41:37.486Z,964.4820
2024-05-09T07:42:37.541Z,964.4640
2024-05-09T07:43:50.276Z,964.4550
2024-05-09T07:44:51.277Z,964.4540
2024-05-09T07:46:48.234Z,964.4517
2024-05-09T07:48:14.696Z,964.4540
2024-05-09T07:49:45.087Z,964.4740
2024-05-09T07:53:08.679Z,964.4980
2024-05-09T07:53:33.658Z,964.4960
2024-05-09T07:53:47.320Z,964.5000
2024-05-09T07:54:49.818Z,964.5000
2024-05-09T07:55:51.072Z,964.5020
2024-05-09T07:56:51.221Z,964.5020
2024-05-09T07:57:51.609Z,964.5000
2024-05-09T07:58:52.172Z,964.4900
2024-05-09T07:59:52.294Z,964.4960
2024-05-09T08:00:52.379Z,964.4960
2024-05-09T08:01:52.464Z,964.4920
2024-05-09T08:02:52.730Z,964.4860
2024-05-09T08:03:53.090Z,964.4820
2024-05-09T08:04:53.295Z,964.4820
2024-05-09T08:05:54.453Z,964.4880
2024-05-09T08:06:54.568Z,964.4900
2024-05-09T08:07:55.583Z,964.4980
2024-05-09T08:09:11.116Z,964.4816
2024-05-09T08:10:15.471Z,964.4780
2024-05-09T08:11:18.933Z,964.4840
2024-05-09T08:12:30.847Z,964.4683
2024-05-09T08:13:42.585Z,964.4816
2024-05-09T08:14:56.198Z,964.4850
2024-05-09T08:16:07.972Z,964.4783
2024-05-09T08:17:19.800Z,964.4733
2024-05-09T08:18:31.883Z,964.4700
2024-05-09T08:19:32.006Z,964.4580
2024-05-09T08:20:43.727Z,964.4600
2024-05-09T08:21:55.540Z,964.4733
2024-05-09T08:23:07.336Z,964.4700
2024-05-09T08:24:19.128Z,964.4750
2024-05-09T08:25:30.916Z,964.4883
2024-05-09T08:26:42.682Z,964.4816
2024-05-09T08:27:54.452Z,964.4850
2024-05-09T08:28:54.505Z,964.4920
2024-05-09T08:31:17.970Z,964.4816
2024-05-09T08:32:29.938Z,964.4933
2024-05-09T08:33:31.236Z,964.4660
2024-05-09T08:34:31.216Z,964.4740
2024-05-09T08:35:31.293Z,964.4580
2024-05-09T08:36:43.163Z,964.4633
2024-05-09T08:37:43.278Z,964.4580
2024-05-09T08:38:43.386Z,964.4640
2024-05-09T08:39:43.369Z,964.4680
2024-05-09T08:40:43.433Z,964.4580
2024-05-09T08:41:44.359Z,964.4640
2024-05-09T08:42:56.166Z,964.4650
2024-05-09T08:44:07.884Z,964.4816
2024-05-09T08:45:19.617Z,964.4883
2024-05-09T08:46:31.361Z,964.4950
2024-05-09T08:47:31.787Z,964.5120
2024-05-09T08:48:33.095Z,964.5100
2024-05-09T08:49:33.263Z,964.5220
2024-05-09T08:50:38.535Z,964.5500
2024-05-09T08:51:41.058Z,964.5640
2024-05-09T08:52:41.093Z,964.5600
2024-05-09T08:53:41.052Z,964.5400
2024-05-09T08:54:52.846Z,964.5300
2024-05-09T08:56:04.670Z,964.5234
2024-05-09T08:57:16.523Z,964.5067
2024-05-09T08:58:16.797Z,964.5060
2024-05-09T08:59:16.831Z,964.4860
2024-05-09T09:00:35.948Z,964.4833
2024-05-09T09:01:34.398Z,964.4840
2024-05-09T09:02:34.694Z,964.4740
2024-05-09T09:03:34.815Z,964.4880
2024-05-09T09:04:34.955Z,964.4740
2024-05-09T09:05:46.750Z,964.4833
2024-05-09T09:06:59.767Z,964.4900
2024-05-09T09:08:00.294Z,964.4900
2024-05-09T09:09:12.302Z,964.4984
2024-05-09T09:10:29.884Z,964.4866
2024-05-09T09:11:31.614Z,964.5000
2024-05-09T09:12:31.620Z,964.4620
2024-05-09T09:13:43.437Z,964.4833
2024-05-09T09:14:55.183Z,964.4966
2024-05-09T09:16:07.045Z,964.5000
2024-05-09T09:17:07.003Z,964.4880
2024-05-09T09:18:19.272Z,964.4800
2024-05-09T09:19:19.432Z,964.4740
2024-05-09T09:20:26.269Z,964.4580
2024-05-09T09:21:25.286Z,964.4620
2024-05-09T09:22:38.094Z,964.4633
2024-05-09T09:23:38.037Z,964.4560
2024-05-09T09:24:49.895Z,964.4650
2024-05-09T09:26:01.751Z,964.4517
2024-05-09T09:27:13.606Z,964.4584
2024-05-09T09:28:25.427Z,964.4500
2024-05-09T09:29:37.211Z,964.4484
2024-05-09T09:30:48.973Z,964.4517
2024-05-09T09:32:00.701Z,964.4567
2024-05-09T09:33:12.550Z,964.4667
2024-05-09T09:34:24.642Z,964.4584
2024-05-09T09:35:24.556Z,964.4620
2024-05-09T09:36:36.292Z,964.4534
2024-05-09T09:37:47.984Z,964.4400
2024-05-09T09:38:59.758Z,964.4467
2024-05-09T09:40:13.311Z,964.4484
2024-05-09T09:41:13.609Z,964.4560
2024-05-09T09:42:25.299Z,964.4584
2024-05-09T09:43:37.110Z,964.4633
2024-05-09T09:44:57.794Z,964.4633
2024-05-09T09:45:54.712Z,964.4700
2024-05-09T09:47:07.120Z,964.4800
2024-05-09T09:48:07.036Z,964.4700
2024-05-09T09:49:19.826Z,964.4550
2024-05-09T09:50:34.572Z,964.4683
2024-05-09T09:51:35.447Z,964.4820
2024-05-09T09:52:35.395Z,964.4680
2024-05-09T09:53:47.208Z,964.4750
2024-05-09T09:54:58.994Z,964.4866
2024-05-09T09:55:58.975Z,964.4780
2024-05-09T09:57:10.636Z,964.4900
2024-05-09T09:58:22.395Z,964.4984
2024-05-09T09:59:34.177Z,964.4900
2024-05-09T10:00:46.328Z,964.4766
2024-05-09T10:01:46.338Z,964.4960
2024-05-09T10:02:58.084Z,964.5034
2024-05-09T10:04:09.812Z,964.4783
2024-05-09T10:05:21.754Z,964.4417
2024-05-09T10:06:21.670Z,964.4360
2024-05-09T10:07:22.508Z,964.4240
2024-05-09T10:08:34.164Z,964.4500
2024-05-09T10:09:45.895Z,964.4550
2024-05-09T10:10:58.668Z,964.4617
2024-05-09T10:12:10.402Z,964.4683
2024-05-09T10:13:22.054Z,964.4867
2024-05-09T10:14:33.702Z,964.4500
2024-05-09T10:15:34.580Z,964.4720
2024-05-09T10:16:46.198Z,964.4650
2024-05-09T10:17:57.908Z,964.4567
2024-05-09T10:19:09.671Z,964.4650
2024-05-09T10:20:27.715Z,964.4667
2024-05-09T10:21:27.923Z,964.4700
2024-05-09T10:22:39.529Z,964.4467
2024-05-09T10:23:51.209Z,964.4266
2024-05-09T10:25:04.821Z,964.4166
2024-05-09T10:26:05.922Z,964.4140
2024-05-09T10:27:06.127Z,964.4000
2024-05-09T10:28:17.788Z,964.3983
2024-05-09T10:29:18.797Z,964.3860
2024-05-09T10:30:35.801Z,964.3850
2024-05-09T10:31:36.246Z,964.3900
2024-05-09T10:32:47.959Z,964.3716
2024-05-09T10:33:59.995Z,964.3716
2024-05-09T10:35:00.082Z,964.3580
2024-05-09T10:36:00.009Z,964.3340
2024-05-09T10:37:11.623Z,964.3500
2024-05-09T10:38:23.202Z,964.3367
2024-05-09T10:39:34.940Z,964.3250
2024-05-09T10:40:46.526Z,964.3234
2024-05-09T10:41:58.189Z,964.3250
2024-05-09T10:43:09.838Z,964.3150
2024-05-09T10:44:21.359Z,964.3033
2024-05-09T10:45:32.957Z,964.3150
2024-05-09T10:46:44.553Z,964.3184
2024-05-09T10:47:56.377Z,964.3116
2024-05-09T10:49:08.186Z,964.3000
2024-05-09T10:50:25.552Z,964.3033
2024-05-09T10:51:25.773Z,964.3140
2024-05-09T10:52:37.352Z,964.3100
2024-05-09T10:53:48.954Z,964.2983
2024-05-09T10:55:01.694Z,964.2767
2024-05-09T10:56:04.041Z,964.2900
2024-05-09T10:57:15.591Z,964.2683
2024-05-09T10:58:27.238Z,964.2634
2024-05-09T10:59:38.950Z,964.2634
2024-05-09T11:00:50.582Z,964.2466
2024-05-09T11:02:02.415Z,964.2400
2024-05-09T11:03:14.043Z,964.2100
2024-05-09T11:04:25.714Z,964.2000
2024-05-09T11:05:37.563Z,964.2050
2024-05-09T11:06:37.498Z,964.2140
2024-05-09T11:07:37.447Z,964.2200
2024-05-09T11:08:49.055Z,964.2050
2024-05-09T11:10:00.801Z,964.1934
2024-05-09T11:11:12.463Z,964.1967
2024-05-09T11:12:24.987Z,964.1683
2024-05-09T11:13:24.984Z,964.1360
2024-05-09T11:14:36.570Z,964.1284
2024-05-09T11:15:48.213Z,964.1300
2024-05-09T11:16:59.970Z,964.1400
2024-05-09T11:18:11.792Z,964.1500
2024-05-09T11:19:11.787Z,964.1680
2024-05-09T11:20:29.444Z,964.1700
2024-05-09T11:21:29.312Z,964.1600
2024-05-09T11:22:41.627Z,964.1367
2024-05-09T11:23:41.834Z,964.1180
2024-05-09T11:24:41.703Z,964.1000
2024-05-09T11:25:53.390Z,964.0566
2024-05-09T11:27:05.031Z,964.0367
2024-05-09T11:28:16.833Z,964.0300
2024-05-09T11:29:19.236Z,964.0460
2024-05-09T11:30:26.559Z,964.0400
2024-05-09T11:31:25.450Z,964.0260
2024-05-09T11:32:25.528Z,964.0340
2024-05-09T11:33:25.492Z,964.0440
2024-05-09T11:34:37.095Z,964.0750
2024-05-09T11:35:48.713Z,964.0917
2024-05-09T11:37:00.433Z,964.0717
2024-05-09T11:38:12.088Z,964.0667
2024-05-09T11:39:23.907Z,964.0717
2024-05-09T11:40:25.998Z,964.0560
2024-05-09T11:41:29.323Z,964.0200
2024-05-09T11:42:40.873Z,964.0167
2024-05-09T11:43:52.617Z,964.0367
2024-05-09T11:45:04.147Z,964.0383
2024-05-09T11:46:15.903Z,964.0516
2024-05-09T11:47:27.588Z,964.0616
2024-05-09T11:48:39.380Z,964.0433
2024-05-09T11:49:39.416Z,964.0480
2024-05-09T11:50:51.064Z,964.0267
2024-05-09T11:52:02.710Z,964.0217
2024-05-09T11:53:14.265Z,964.0200
2024-05-09T11:54:25.821Z,964.0050
2024-05-09T11:55:37.334Z,963.9950
2024-05-09T11:56:48.986Z,963.9916
2024-05-09T11:58:00.611Z,963.9883
2024-05-09T11:59:12.271Z,963.9950
2024-05-09T12:00:33.564Z,963.9900
2024-05-09T12:01:29.938Z,963.9740
2024-05-09T12:02:29.909Z,963.9660
2024-05-09T12:03:41.682Z,963.9750
2024-05-09T12:04:53.424Z,963.9617
2024-05-09T12:05:53.325Z,963.9540
2024-05-09T12:07:05.043Z,963.9450
2024-05-09T12:08:16.684Z,963.9316
2024-05-09T12:09:28.395Z,963.9283
2024-05-09T12:10:40.127Z,963.9233
2024-05-09T12:11:51.919Z,963.9050
2024-05-09T12:13:05.549Z,963.8950
2024-05-09T12:14:06.909Z,963.8880
2024-05-09T12:15:18.578Z,963.8666
2024-05-09T12:16:30.337Z,963.8400
2024-05-09T12:17:31.228Z,963.8440
2024-05-09T12:18:31.178Z,963.8500
2024-05-09T12:19:42.831Z,963.8417
2024-05-09T12:20:54.622Z,963.8533
2024-05-09T12:22:06.286Z,963.8450
2024-05-09T12:23:17.883Z,963.8483
2024-05-09T12:24:29.508Z,963.8267
2024-05-09T12:25:41.237Z,963.8234
2024-05-09T12:26:52.945Z,963.8184
2024-05-09T12:28:04.647Z,963.8066
2024-05-09T12:29:16.280Z,963.7900
2024-05-09T12:30:35.760Z,963.7534
2024-05-09T12:31:34.349Z,963.7400
2024-05-09T12:32:46.531Z,963.7400
2024-05-09T12:33:46.541Z,963.7280
2024-05-09T12:34:46.427Z,963.7040